LFQF weather

Autun-Bellevue Airport
Autun/Bellevue, Burgundy, France

Public forecast

Using degrees Celsius for public forecast. Weather courtesy of forecast.io.

METAR (pilot weather report)

Closest report is Saint-Yan Airport, 34.8 nm (64.5 km) SSW. Retrieved 2019/09/22 06:30 UTC (15 minutes ago):

LFLN 220630Z AUTO VRB03KT CAVOK 19/13 Q1010 NOSIG

TAF (pilot weather forecast)

Forecast is more than 12 hours old.

Closest forecast is Dijon-Bourgogne Airport, 38.4 nm (71.2 km) ENE. Retrieved 2015/06/01 00:11 UTC (4 years ago):

TAF LFSD 010600Z 0100/0124 CNL